Time;durP1;ratioP1;P1;durP2;ratioP2;P2;SDS_P1;SDS_P2;PMS_P1;PMS_P2;Temp;Humidity;BMP_temperature;BMP_pressure;BME280_temperature;BME280_humidity;BME280_pressure;Samples;Min_cycle;Max_cycle;Signal;HPM_P1;HPM_P2
2023/01/20 00:01:53;;;;;;;7.97;7.17;;;2.60;96.30;;;;;;931844;150;27391;-76
2023/01/20 00:04:19;;;;;;;8.40;7.60;;;2.60;96.40;;;;;;929713;150;28227;-77
2023/01/20 00:06:46;;;;;;;8.67;7.30;;;2.60;96.60;;;;;;930572;149;27340;-76
2023/01/20 00:09:15;;;;;;;9.00;8.10;;;2.60;96.80;;;;;;930717;150;27329;-77
2023/01/20 00:11:43;;;;;;;8.57;7.67;;;2.50;96.90;;;;;;932258;150;27431;-76
2023/01/20 00:14:09;;;;;;;10.07;8.50;;;2.50;97.00;;;;;;929384;150;27332;-78
2023/01/20 00:16:35;;;;;;;9.73;8.23;;;2.50;97.20;;;;;;930085;150;27386;-76
2023/01/20 00:19:02;;;;;;;12.10;8.63;;;2.50;97.30;;;;;;930752;150;27320;-76
2023/01/20 00:21:28;;;;;;;9.67;8.67;;;2.50;97.50;;;;;;918401;151;27448;-78
2023/01/20 00:23:55;;;;;;;10.23;8.10;;;2.50;97.60;;;;;;919427;151;27411;-76
2023/01/20 00:26:21;;;;;;;10.20;7.83;;;2.50;97.60;;;;;;918465;151;27343;-76
2023/01/20 00:28:48;;;;;;;9.33;8.17;;;2.50;97.70;;;;;;929864;150;28003;-77
2023/01/20 00:31:15;;;;;;;9.30;7.40;;;2.50;97.70;;;;;;918282;151;27279;-77
2023/01/20 00:33:41;;;;;;;9.97;7.93;;;2.50;97.70;;;;;;934807;149;27447;-80
2023/01/20 00:36:08;;;;;;;10.60;8.17;;;2.50;97.70;;;;;;929518;151;27378;-76
2023/01/20 00:38:34;;;;;;;7.90;7.13;;;2.40;97.70;;;;;;918944;151;27344;-76
2023/01/20 00:41:01;;;;;;;10.57;7.93;;;2.50;97.60;;;;;;920519;151;27348;-77
2023/01/20 00:43:28;;;;;;;11.27;8.20;;;2.40;97.60;;;;;;934336;149;27337;-78
2023/01/20 00:45:54;;;;;;;8.87;8.03;;;2.40;97.50;;;;;;917426;151;27392;-76
2023/01/20 00:48:21;;;;;;;8.60;7.67;;;2.40;97.30;;;;;;934591;149;27343;-76
2023/01/20 00:50:47;;;;;;;9.37;8.07;;;2.40;97.20;;;;;;913650;151;27343;-77
2023/01/20 00:53:14;;;;;;;8.83;7.63;;;2.30;97.10;;;;;;913542;152;27475;-76
2023/01/20 00:55:40;;;;;;;8.43;7.53;;;2.30;97.10;;;;;;927034;150;27282;-80
2023/01/20 00:58:07;;;;;;;10.50;7.37;;;2.30;97.00;;;;;;928655;150;28200;-77
2023/01/20 01:00:34;;;;;;;8.60;7.63;;;2.20;97.00;;;;;;927077;150;27747;-76
2023/01/20 01:03:00;;;;;;;9.30;7.57;;;2.20;96.90;;;;;;922526;151;27323;-76
2023/01/20 01:05:27;;;;;;;10.17;8.47;;;2.10;96.90;;;;;;914242;151;27370;-77
2023/01/20 01:07:53;;;;;;;9.37;7.63;;;2.10;96.90;;;;;;911802;152;27424;-80
2023/01/20 01:10:20;;;;;;;8.27;7.43;;;2.00;96.90;;;;;;909441;152;27501;-76
2023/01/20 01:12:47;;;;;;;10.87;7.77;;;2.00;96.90;;;;;;907199;153;27360;-76
2023/01/20 01:15:14;;;;;;;9.73;7.63;;;2.00;96.90;;;;;;922830;151;27349;-76
2023/01/20 01:17:40;;;;;;;8.57;7.47;;;1.90;96.90;;;;;;921208;151;27344;-80
2023/01/20 01:20:06;;;;;;;19.63;9.30;;;1.90;96.90;;;;;;918874;152;27377;-77
2023/01/20 01:22:33;;;;;;;10.47;7.97;;;1.80;96.80;;;;;;912086;153;27375;-79
2023/01/20 01:25:00;;;;;;;23.63;10.50;;;1.80;96.80;;;;;;919546;152;27344;-77
2023/01/20 01:27:26;;;;;;;19.00;9.80;;;1.70;96.80;;;;;;925884;151;27338;-80
2023/01/20 01:29:53;;;;;;;17.37;8.77;;;1.70;97.00;;;;;;917158;151;27390;-77
2023/01/20 01:32:19;;;;;;;30.30;11.70;;;1.60;97.00;;;;;;919702;152;28262;-76
2023/01/20 01:34:46;;;;;;;15.90;7.53;;;1.60;97.20;;;;;;922344;151;27259;-77
2023/01/20 01:37:12;;;;;;;17.23;8.00;;;1.60;97.20;;;;;;930005;151;27437;-77
2023/01/20 01:39:39;;;;;;;18.10;8.10;;;1.50;97.30;;;;;;931711;149;27360;-79
2023/01/20 01:42:12;;;;;;;19.87;8.53;;;1.50;97.30;;;;;;933915;149;27389;-76
2023/01/20 01:44:38;;;;;;;45.67;9.00;;;1.50;97.40;;;;;;932754;149;27291;-77
2023/01/20 01:47:05;;;;;;;28.83;7.87;;;1.40;97.40;;;;;;920012;150;27365;-76
2023/01/20 01:49:31;;;;;;;11.47;6.87;;;1.40;97.60;;;;;;923965;151;27360;-78
2023/01/20 01:51:58;;;;;;;15.47;6.23;;;1.40;97.90;;;;;;925308;151;27443;-76
2023/01/20 01:54:25;;;;;;;15.27;6.43;;;1.40;98.10;;;;;;922069;150;27482;-77
2023/01/20 01:56:51;;;;;;;28.73;8.53;;;1.40;98.30;;;;;;924132;151;27339;-77
2023/01/20 01:59:18;;;;;;;26.43;7.03;;;1.40;98.50;;;;;;924107;151;27408;-77
2023/01/20 02:01:47;;;;;;;16.40;6.67;;;1.40;98.70;;;;;;924531;150;27325;-80
2023/01/20 02:04:14;;;;;;;14.43;5.83;;;1.40;98.80;;;;;;924035;150;27463;-79
2023/01/20 02:06:40;;;;;;;21.80;5.93;;;1.50;98.80;;;;;;925028;150;27412;-76
2023/01/20 02:09:07;;;;;;;17.07;7.93;;;1.50;98.70;;;;;;929305;149;27468;-77
2023/01/20 02:11:40;;;;;;;20.50;7.00;;;1.50;98.50;;;;;;926395;152;27392;-78
2023/01/20 02:14:06;;;;;;;18.13;6.87;;;1.50;98.50;;;;;;928967;154;27467;-76
2023/01/20 02:16:47;;;;;;;12.90;7.33;;;1.50;98.50;;;;;;944585;151;27271;-77
2023/01/20 02:19:29;;;;;;;11.67;6.63;;;1.50;98.50;;;;;;932514;151;27447;-78
2023/01/20 02:22:08;;;;;;;16.00;8.33;;;1.50;98.50;;;;;;940375;151;27379;-77
2023/01/20 02:24:56;;;;;;;8.07;5.63;;;1.50;98.50;;;;;;921435;153;27368;-80
2023/01/20 02:28:00;;;;;;;11.03;6.23;;;1.50;98.30;;;;;;939654;151;27336;-80
2023/01/20 02:30:45;;;;;;;6.63;5.60;;;1.50;98.30;;;;;;920714;152;27323;-79
2023/01/20 02:33:17;;;;;;;12.93;7.17;;;1.50;98.30;;;;;;913690;149;27698;-79
2023/01/20 02:35:53;;;;;;;15.47;7.33;;;1.50;98.30;;;;;;931036;149;27478;-76
2023/01/20 02:38:46;;;;;;;30.17;8.17;;;1.50;98.50;;;;;;930566;149;27323;-78
2023/01/20 02:41:19;;;;;;;11.93;6.63;;;1.50;98.40;;;;;;931640;149;27390;-80
2023/01/20 02:43:58;;;;;;;15.40;7.27;;;1.50;98.40;;;;;;930767;149;27321;-78
2023/01/20 02:46:39;;;;;;;22.00;7.67;;;1.50;98.30;;;;;;932938;149;27381;-80
2023/01/20 02:49:12;;;;;;;13.97;7.53;;;1.50;98.30;;;;;;921185;149;27380;-77
2023/01/20 02:51:44;;;;;;;10.60;6.27;;;1.40;98.30;;;;;;935997;149;27324;-78
2023/01/20 02:54:11;;;;;;;17.47;8.00;;;1.40;98.40;;;;;;934379;149;27396;-78
2023/01/20 02:56:38;;;;;;;9.03;7.10;;;1.40;98.50;;;;;;935130;149;27285;-80
2023/01/20 02:59:07;;;;;;;12.47;8.03;;;1.40;98.60;;;;;;935508;149;27340;-77
2023/01/20 03:01:34;;;;;;;9.43;7.70;;;1.40;98.70;;;;;;934558;149;27414;-78
2023/01/20 03:04:00;;;;;;;8.17;6.93;;;1.40;98.70;;;;;;932475;149;27336;-77
2023/01/20 03:06:27;;;;;;;8.33;7.33;;;1.50;99.00;;;;;;926986;152;27478;-77
2023/01/20 03:08:53;;;;;;;8.17;7.27;;;1.50;99.10;;;;;;927653;151;27425;-77
2023/01/20 03:11:20;;;;;;;9.23;7.47;;;1.50;99.30;;;;;;908676;153;27386;-78
2023/01/20 03:13:47;;;;;;;8.70;7.80;;;1.60;99.50;;;;;;923938;151;27327;-77
2023/01/20 03:16:16;;;;;;;8.73;7.83;;;1.60;99.50;;;;;;920429;151;27396;-77
2023/01/20 03:18:43;;;;;;;7.53;6.63;;;1.60;99.50;;;;;;930645;149;27430;-80
2023/01/20 03:21:09;;;;;;;8.33;6.67;;;1.70;99.60;;;;;;931671;150;27404;-78
2023/01/20 03:23:43;;;;;;;8.80;7.53;;;1.70;99.70;;;;;;928416;149;27358;-78
2023/01/20 03:26:07;;;;;;;9.33;7.00;;;1.80;99.60;;;;;;931823;150;27730;-78
2023/01/20 03:28:33;;;;;;;20.57;8.60;;;1.80;99.40;;;;;;931094;149;27390;-77
2023/01/20 03:31:00;;;;;;;16.17;7.83;;;1.90;99.40;;;;;;930412;149;27281;-77
2023/01/20 03:33:26;;;;;;;10.03;7.17;;;1.90;99.30;;;;;;931137;150;27388;-80
2023/01/20 03:35:53;;;;;;;8.30;6.73;;;1.90;99.20;;;;;;931785;149;27385;-77
2023/01/20 03:38:19;;;;;;;7.13;6.43;;;2.00;99.20;;;;;;930958;149;27472;-77
2023/01/20 03:40:55;;;;;;;7.90;6.40;;;2.00;99.20;;;;;;929360;149;27718;-81
2023/01/20 03:43:43;;;;;;;7.13;6.53;;;2.10;99.30;;;;;;931467;149;27357;-81
2023/01/20 03:46:21;;;;;;;7.43;6.73;;;2.10;99.20;;;;;;930692;149;27371;-81
2023/01/20 03:48:50;;;;;;;7.53;6.80;;;2.10;98.90;;;;;;913227;149;27991;-81
2023/01/20 03:51:30;;;;;;;7.40;6.60;;;2.10;98.80;;;;;;930987;149;27373;-80
2023/01/20 03:53:55;;;;;;;6.40;5.80;;;2.10;98.80;;;;;;931308;149;27390;-79
2023/01/20 03:56:31;;;;;;;7.63;6.90;;;2.20;98.90;;;;;;931036;149;27356;-81
2023/01/20 03:58:57;;;;;;;8.00;7.17;;;2.20;99.40;;;;;;913995;152;27374;-81
2023/01/20 04:01:24;;;;;;;7.70;6.90;;;2.30;99.20;;;;;;913494;152;27850;-80
2023/01/20 04:03:51;;;;;;;7.90;7.10;;;2.30;99.20;;;;;;922817;150;27464;-80
2023/01/20 04:06:17;;;;;;;8.57;7.50;;;2.30;99.30;;;;;;928765;149;27492;-80
2023/01/20 04:08:44;;;;;;;7.17;6.13;;;2.40;99.20;;;;;;908691;153;27350;-79
2023/01/20 04:11:10;;;;;;;7.13;6.43;;;2.50;99.30;;;;;;933386;149;27395;-80
2023/01/20 04:13:37;;;;;;;7.67;6.80;;;2.50;99.30;;;;;;914901;153;27838;-81
2023/01/20 04:16:03;;;;;;;8.00;6.67;;;2.50;99.20;;;;;;915305;153;27399;-79
2023/01/20 04:18:30;;;;;;;6.83;6.10;;;2.60;99.10;;;;;;915374;153;28293;-81
2023/01/20 04:21:00;;;;;;;6.93;6.33;;;2.60;98.90;;;;;;912416;153;27459;-80
2023/01/20 04:23:32;;;;;;;6.90;6.20;;;2.70;98.80;;;;;;914286;153;27401;-80
2023/01/20 04:25:58;;;;;;;6.93;6.30;;;2.70;98.60;;;;;;913959;153;27829;-79
2023/01/20 04:28:25;;;;;;;7.53;6.83;;;2.80;98.40;;;;;;916295;153;27446;-80
2023/01/20 04:30:51;;;;;;;7.30;6.60;;;2.80;98.40;;;;;;913248;153;27360;-80
2023/01/20 04:33:18;;;;;;;7.47;6.77;;;2.80;98.30;;;;;;915601;153;27447;-80
2023/01/20 04:35:45;;;;;;;7.77;7.07;;;2.80;98.30;;;;;;911002;153;27343;-81
2023/01/20 04:38:11;;;;;;;7.83;7.13;;;2.80;98.40;;;;;;902950;155;27398;-79
2023/01/20 04:40:38;;;;;;;8.70;7.77;;;2.90;98.30;;;;;;918198;153;27486;-81
2023/01/20 04:43:04;;;;;;;8.63;7.73;;;2.90;98.30;;;;;;917975;153;27357;-80
2023/01/20 04:45:31;;;;;;;9.13;8.07;;;2.90;98.30;;;;;;913475;153;27369;-82
2023/01/20 04:47:58;;;;;;;8.97;7.73;;;2.90;98.20;;;;;;914974;153;27794;-79
2023/01/20 04:50:24;;;;;;;11.30;9.03;;;3.00;98.20;;;;;;913889;153;27377;-80
2023/01/20 04:52:51;;;;;;;9.43;8.43;;;3.00;98.10;;;;;;914876;153;27432;-81
2023/01/20 04:55:17;;;;;;;9.80;8.80;;;3.00;98.10;;;;;;915586;153;27428;-81
2023/01/20 04:57:44;;;;;;;11.83;9.03;;;3.10;98.10;;;;;;914693;153;27433;-80
2023/01/20 05:00:11;;;;;;;12.63;9.73;;;3.10;98.10;;;;;;903095;155;27453;-80
2023/01/20 05:02:37;;;;;;;11.87;10.03;;;3.20;98.20;;;;;;903195;156;27488;-81
2023/01/20 05:05:04;;;;;;;14.60;9.97;;;3.20;98.10;;;;;;911165;153;27394;-81
2023/01/20 05:07:30;;;;;;;12.37;10.00;;;3.20;98.00;;;;;;902940;155;27403;-82
2023/01/20 05:09:57;;;;;;;16.17;10.87;;;3.20;98.00;;;;;;919563;148;27362;-80
2023/01/20 05:12:23;;;;;;;16.50;11.27;;;3.20;98.00;;;;;;950923;148;27464;-81
2023/01/20 05:14:50;;;;;;;18.53;11.30;;;3.30;98.30;;;;;;935018;151;27401;-81
2023/01/20 05:17:17;;;;;;;21.30;12.07;;;3.30;97.90;;;;;;934245;150;27339;-80
2023/01/20 05:19:43;;;;;;;17.60;11.40;;;3.30;97.90;;;;;;930646;151;27423;-81
2023/01/20 05:22:10;;;;;;;16.83;11.23;;;3.30;97.90;;;;;;943202;151;27371;-80
2023/01/20 05:24:36;;;;;;;15.33;10.87;;;3.40;97.90;;;;;;944499;151;27332;-81
2023/01/20 05:27:03;;;;;;;18.63;12.10;;;3.40;98.00;;;;;;944009;151;27342;-81
2023/01/20 05:29:30;;;;;;;17.80;11.87;;;3.40;98.00;;;;;;944778;150;27396;-81
2023/01/20 05:31:56;;;;;;;19.17;12.50;;;3.40;97.80;;;;;;943056;151;27258;-80
2023/01/20 05:34:23;;;;;;;19.60;12.30;;;3.40;97.80;;;;;;942144;151;27736;-79
2023/01/20 05:36:52;;;;;;;20.50;12.67;;;3.40;97.70;;;;;;937068;150;27420;-79
2023/01/20 05:39:19;;;;;;;25.83;12.60;;;3.40;97.50;;;;;;931396;151;27421;-79
2023/01/20 05:41:45;;;;;;;19.73;11.80;;;3.40;97.10;;;;;;939012;150;27367;-79
2023/01/20 05:44:12;;;;;;;21.47;12.13;;;3.40;96.80;;;;;;931431;151;27345;-81
2023/01/20 05:46:39;;;;;;;19.17;10.77;;;3.40;96.50;;;;;;948014;148;27376;-81
2023/01/20 05:49:05;;;;;;;23.03;12.87;;;3.30;96.30;;;;;;944179;151;27376;-81
2023/01/20 05:51:32;;;;;;;20.33;12.40;;;3.30;96.20;;;;;;947929;148;27309;-81
2023/01/20 05:53:58;;;;;;;22.40;13.10;;;3.20;96.20;;;;;;946272;148;27279;-81
2023/01/20 05:56:25;;;;;;;25.10;14.17;;;3.20;96.40;;;;;;947035;148;27372;-82
2023/01/20 05:58:55;;;;;;;22.63;14.57;;;3.10;96.60;;;;;;944669;148;27354;-82
2023/01/20 06:01:21;;;;;;;24.77;15.53;;;3.10;96.90;;;;;;946728;148;27534;-81
2023/01/20 06:03:48;;;;;;;22.93;13.23;;;3.10;97.00;;;;;;939928;149;27325;-81
2023/01/20 06:06:17;;;;;;;22.90;14.00;;;3.00;97.20;;;;;;938178;149;27374;-80
2023/01/20 06:08:41;;;;;;;23.37;15.00;;;3.00;97.40;;;;;;947795;148;27349;-81
2023/01/20 06:11:08;;;;;;;23.60;14.40;;;3.00;97.70;;;;;;948169;148;27506;-82
2023/01/20 06:13:34;;;;;;;20.50;13.50;;;3.10;97.90;;;;;;947864;148;27346;-81
2023/01/20 06:16:01;;;;;;;24.20;13.20;;;3.10;97.90;;;;;;945556;148;27372;-81
2023/01/20 06:18:29;;;;;;;21.87;13.43;;;3.10;98.00;;;;;;948103;148;27330;-80
2023/01/20 06:20:57;;;;;;;18.90;12.73;;;3.10;98.00;;;;;;947009;148;27386;-82
2023/01/20 06:23:23;;;;;;;24.87;13.57;;;3.10;98.10;;;;;;937502;149;27322;-82
2023/01/20 06:25:50;;;;;;;21.53;14.60;;;3.10;98.10;;;;;;939659;149;27329;-82
2023/01/20 06:28:16;;;;;;;23.23;13.40;;;3.20;98.00;;;;;;936678;149;27383;-80
2023/01/20 06:30:43;;;;;;;22.73;13.53;;;3.20;98.00;;;;;;941902;150;27429;-82
2023/01/20 06:33:10;;;;;;;21.30;13.43;;;3.20;98.00;;;;;;942963;150;27385;-81
2023/01/20 06:35:36;;;;;;;23.77;13.40;;;3.20;97.90;;;;;;942666;150;27905;-81
2023/01/20 06:38:03;;;;;;;19.07;12.80;;;3.20;97.80;;;;;;943928;151;27319;-81
2023/01/20 06:40:29;;;;;;;20.10;13.50;;;3.20;97.80;;;;;;942757;149;27974;-82
2023/01/20 06:42:56;;;;;;;22.67;14.63;;;3.20;97.90;;;;;;943280;150;27331;-81
2023/01/20 06:45:23;;;;;;;24.53;13.43;;;3.20;97.90;;;;;;934246;150;27473;-82
2023/01/20 06:47:49;;;;;;;22.57;13.67;;;3.20;97.80;;;;;;934584;151;27295;-82
2023/01/20 06:50:16;;;;;;;22.30;13.73;;;3.20;97.80;;;;;;941550;149;27285;-80
2023/01/20 06:52:42;;;;;;;21.87;13.10;;;3.20;97.80;;;;;;942060;149;27401;-82
2023/01/20 06:55:09;;;;;;;19.53;12.53;;;3.20;97.80;;;;;;942881;149;27312;-82
2023/01/20 06:57:36;;;;;;;17.50;12.87;;;3.20;97.80;;;;;;947850;148;27269;-81
2023/01/20 07:00:02;;;;;;;17.50;13.30;;;3.20;97.90;;;;;;933648;150;27409;-81
2023/01/20 07:02:29;;;;;;;18.73;11.97;;;3.20;97.90;;;;;;933243;151;27470;-80
2023/01/20 07:04:55;;;;;;;22.77;12.37;;;3.20;97.90;;;;;;943996;149;27780;-82
2023/01/20 07:07:22;;;;;;;18.17;11.93;;;3.20;97.90;;;;;;941574;149;27860;-81
2023/01/20 07:09:50;;;;;;;18.20;12.10;;;3.20;97.90;;;;;;942495;149;27347;-81
2023/01/20 07:12:15;;;;;;;16.40;12.63;;;3.20;98.00;;;;;;939663;148;27469;-81
2023/01/20 07:14:42;;;;;;;16.27;12.40;;;3.30;98.10;;;;;;925237;150;27399;-83
2023/01/20 07:17:08;;;;;;;16.60;12.33;;;3.30;98.00;;;;;;923630;150;27847;-80
2023/01/20 07:19:35;;;;;;;19.30;12.33;;;3.30;98.00;;;;;;926495;151;27324;-81
2023/01/20 07:22:01;;;;;;;14.63;11.27;;;3.30;98.00;;;;;;924778;151;27351;-81
2023/01/20 07:24:28;;;;;;;16.93;10.67;;;3.30;98.00;;;;;;925372;151;27309;-81
2023/01/20 07:26:55;;;;;;;13.77;10.40;;;3.40;98.10;;;;;;917279;152;27462;-81
2023/01/20 07:29:21;;;;;;;16.77;10.83;;;3.40;98.10;;;;;;920079;152;28654;-81
2023/01/20 07:31:48;;;;;;;11.83;9.73;;;3.40;98.10;;;;;;918338;152;27335;-80
2023/01/20 07:34:14;;;;;;;15.87;11.07;;;3.40;98.10;;;;;;908138;153;27892;-81
2023/01/20 07:36:41;;;;;;;11.77;9.53;;;3.40;98.10;;;;;;925377;149;27344;-80
2023/01/20 07:39:07;;;;;;;12.00;9.73;;;3.50;98.20;;;;;;923306;151;27335;-81
2023/01/20 07:41:34;;;;;;;19.03;10.37;;;3.50;98.20;;;;;;923604;151;27329;-81
2023/01/20 07:44:01;;;;;;;14.57;10.43;;;3.50;98.20;;;;;;922454;151;27425;-80
2023/01/20 07:46:27;;;;;;;16.17;11.10;;;3.50;98.10;;;;;;916421;152;27861;-80
2023/01/20 07:48:54;;;;;;;13.43;11.00;;;3.60;98.00;;;;;;919340;152;27397;-82
2023/01/20 07:51:20;;;;;;;19.33;11.10;;;3.60;97.90;;;;;;918580;152;27522;-81
2023/01/20 07:53:47;;;;;;;12.20;10.27;;;3.60;97.80;;;;;;925635;151;27329;-81
2023/01/20 07:56:14;;;;;;;14.70;11.53;;;3.60;97.70;;;;;;933217;149;27868;-81
2023/01/20 07:58:41;;;;;;;14.90;10.27;;;3.60;97.60;;;;;;931211;150;27352;-80
2023/01/20 08:01:09;;;;;;;20.23;12.13;;;3.60;97.50;;;;;;931943;150;27893;-82
2023/01/20 08:03:36;;;;;;;13.60;10.93;;;3.60;97.50;;;;;;929285;149;27925;-81
2023/01/20 08:06:03;;;;;;;15.97;11.60;;;3.70;97.50;;;;;;929478;149;27967;-81
2023/01/20 08:08:29;;;;;;;15.40;10.37;;;3.70;97.50;;;;;;931041;149;27391;-80
2023/01/20 08:10:57;;;;;;;16.63;11.00;;;3.70;97.40;;;;;;930126;149;27868;-81
2023/01/20 08:13:22;;;;;;;21.80;11.33;;;3.70;97.30;;;;;;931613;150;27353;-82
2023/01/20 08:15:49;;;;;;;18.20;10.70;;;3.70;97.20;;;;;;932776;149;27383;-81
2023/01/20 08:18:16;;;;;;;22.60;12.33;;;3.70;97.20;;;;;;929507;149;27448;-80
2023/01/20 08:20:42;;;;;;;15.87;11.20;;;3.70;97.30;;;;;;931045;149;27468;-80
2023/01/20 08:23:09;;;;;;;18.40;11.43;;;3.60;97.30;;;;;;929650;149;27411;-80
2023/01/20 08:25:35;;;;;;;18.20;12.10;;;3.70;97.40;;;;;;931736;149;27398;-82
2023/01/20 08:28:02;;;;;;;22.83;12.47;;;3.70;97.60;;;;;;930161;149;27410;-81
2023/01/20 08:30:29;;;;;;;18.07;12.43;;;3.70;97.60;;;;;;931304;149;27345;-80
2023/01/20 08:32:55;;;;;;;17.00;13.33;;;3.70;97.60;;;;;;931448;149;27398;-81
2023/01/20 08:35:22;;;;;;;18.73;12.33;;;3.80;97.80;;;;;;931067;149;27327;-81
2023/01/20 08:37:48;;;;;;;15.13;10.93;;;3.80;97.90;;;;;;918118;152;28149;-82
2023/01/20 08:40:15;;;;;;;16.83;12.83;;;3.80;98.00;;;;;;929601;150;27403;-80
2023/01/20 08:42:41;;;;;;;19.00;12.70;;;3.90;98.10;;;;;;930899;150;27344;-80
2023/01/20 08:45:08;;;;;;;21.97;13.53;;;3.90;98.20;;;;;;917155;152;27473;-81
2023/01/20 08:47:35;;;;;;;19.00;13.67;;;4.00;98.20;;;;;;922998;150;27357;-81
2023/01/20 08:50:01;;;;;;;20.93;14.10;;;4.00;98.20;;;;;;924729;150;27710;-81
2023/01/20 08:52:28;;;;;;;20.30;13.53;;;4.10;98.20;;;;;;922362;151;27313;-81
2023/01/20 08:54:54;;;;;;;17.27;12.27;;;4.10;98.00;;;;;;925119;150;27366;-81
2023/01/20 08:57:21;;;;;;;15.83;12.60;;;4.20;97.90;;;;;;924406;150;27323;-81
2023/01/20 08:59:49;;;;;;;18.03;13.07;;;4.30;97.80;;;;;;922941;150;27468;-81
2023/01/20 09:02:14;;;;;;;17.80;12.63;;;4.30;97.80;;;;;;925648;150;27275;-81
2023/01/20 09:04:41;;;;;;;15.63;11.43;;;4.40;97.80;;;;;;924554;151;27423;-80
2023/01/20 09:07:07;;;;;;;18.83;13.20;;;4.40;97.80;;;;;;921918;151;27372;-81
2023/01/20 09:09:35;;;;;;;15.57;12.97;;;4.50;98.00;;;;;;924375;149;27267;-81
2023/01/20 09:12:01;;;;;;;16.27;12.17;;;4.60;98.00;;;;;;922268;151;27337;-81
2023/01/20 09:14:27;;;;;;;17.73;12.90;;;4.60;98.00;;;;;;924241;151;27832;-81
2023/01/20 09:16:54;;;;;;;17.33;12.20;;;4.70;97.80;;;;;;933076;149;27411;-81
2023/01/20 09:19:20;;;;;;;16.53;13.03;;;4.70;97.60;;;;;;914043;153;28093;-80
2023/01/20 09:21:47;;;;;;;17.93;12.67;;;4.80;97.40;;;;;;896981;155;27414;-81
2023/01/20 09:24:13;;;;;;;19.73;12.00;;;4.80;97.20;;;;;;913423;154;27384;-81
2023/01/20 09:26:40;;;;;;;17.33;12.70;;;4.90;96.90;;;;;;903521;155;27414;-80
2023/01/20 09:29:10;;;;;;;14.90;11.27;;;4.90;96.80;;;;;;912507;153;27441;-82
2023/01/20 09:31:39;;;;;;;14.20;11.57;;;5.00;96.60;;;;;;914630;153;27478;-82
2023/01/20 09:34:05;;;;;;;15.77;12.00;;;5.00;96.60;;;;;;914233;153;27417;-81
2023/01/20 09:36:32;;;;;;;13.20;11.30;;;5.00;96.80;;;;;;913744;153;27505;-80
2023/01/20 09:43:52;;;;;;;15.20;12.33;;;5.20;96.90;;;;;;915335;153;27853;-81
2023/01/20 09:44:28;;;;;;;14.50;11.80;;;5.20;96.80;;;;;;912765;153;27382;-80
2023/01/20 09:47:19;;;;;;;13.33;10.67;;;5.30;96.70;;;;;;911853;153;27499;-80
2023/01/20 09:53:15;;;;;;;12.23;9.87;;;5.40;96.10;;;;;;912849;155;27400;-80
2023/01/20 09:55:40;;;;;;;12.37;9.77;;;5.40;95.90;;;;;;913359;153;27525;-80
2023/01/20 09:58:13;;;;;;;11.63;10.40;;;5.40;95.90;;;;;;914954;153;27448;-80
2023/01/20 10:00:39;;;;;;;11.47;10.03;;;5.40;95.90;;;;;;914080;153;27420;-81
2023/01/20 10:03:18;;;;;;;12.03;10.47;;;5.50;95.70;;;;;;914563;153;27830;-81
2023/01/20 10:05:45;;;;;;;12.03;9.87;;;5.50;95.20;;;;;;913881;153;27398;-80
2023/01/20 10:08:20;;;;;;;11.57;10.00;;;5.50;95.30;;;;;;902345;155;27514;-81
2023/01/20 10:10:49;;;;;;;12.37;11.07;;;5.50;95.20;;;;;;912884;153;27354;-80
2023/01/20 10:13:33;;;;;;;13.53;10.33;;;5.50;95.20;;;;;;913272;153;27960;-81
2023/01/20 10:16:00;;;;;;;13.03;10.77;;;5.60;95.50;;;;;;915782;152;27434;-81
2023/01/20 10:18:47;;;;;;;12.53;10.73;;;5.60;95.00;;;;;;922781;151;27446;-81
2023/01/20 10:21:17;;;;;;;12.40;10.93;;;5.60;95.00;;;;;;923692;151;27314;-81
2023/01/20 10:23:52;;;;;;;11.47;10.37;;;5.60;94.90;;;;;;921690;151;27454;-80
2023/01/20 10:26:24;;;;;;;13.30;11.27;;;5.60;94.80;;;;;;924481;151;27358;-80
2023/01/20 10:29:00;;;;;;;11.57;10.37;;;5.60;94.70;;;;;;922491;151;27294;-81
2023/01/20 10:31:27;;;;;;;13.80;11.27;;;5.60;94.80;;;;;;923323;151;27355;-80
2023/01/20 10:33:54;;;;;;;13.87;10.90;;;5.60;95.00;;;;;;924439;151;27833;-79
2023/01/20 10:36:19;;;;;;;11.33;10.13;;;5.60;95.00;;;;;;922307;151;27368;-80
2023/01/20 10:38:58;;;;;;;11.90;10.60;;;5.60;95.50;;;;;;922968;151;27275;-80
2023/01/20 10:41:30;;;;;;;14.10;11.47;;;5.60;95.60;;;;;;923741;151;27287;-79
2023/01/20 10:43:57;;;;;;;12.97;11.50;;;5.70;95.80;;;;;;924495;151;27417;-80
2023/01/20 10:46:29;;;;;;;14.13;11.17;;;5.70;95.90;;;;;;924505;150;27378;-80
2023/01/20 10:49:02;;;;;;;13.70;11.03;;;5.80;95.90;;;;;;922386;151;27311;-81
2023/01/20 10:52:06;;;;;;;13.10;11.23;;;5.90;95.90;;;;;;925417;151;27275;-80
2023/01/20 10:54:33;;;;;;;14.67;11.93;;;5.90;95.70;;;;;;923387;151;27788;-80
2023/01/20 10:56:59;;;;;;;12.43;11.13;;;6.00;95.70;;;;;;922609;151;27778;-80
2023/01/20 10:59:31;;;;;;;14.17;11.20;;;6.00;95.90;;;;;;923642;151;27408;-80
2023/01/20 11:02:01;;;;;;;12.93;10.93;;;6.10;96.10;;;;;;923759;151;27358;-80
2023/01/20 11:04:28;;;;;;;12.60;11.33;;;6.20;96.30;;;;;;924037;151;27303;-81
2023/01/20 11:06:54;;;;;;;14.20;11.57;;;6.30;96.30;;;;;;925257;151;27321;-81
2023/01/20 11:09:27;;;;;;;13.03;11.63;;;6.40;96.20;;;;;;917245;152;27353;-80
2023/01/20 11:11:53;;;;;;;14.00;12.00;;;6.50;95.90;;;;;;918596;150;27443;-80
2023/01/20 11:14:20;;;;;;;13.30;11.90;;;6.60;95.40;;;;;;925348;150;27358;-79
2023/01/20 11:16:47;;;;;;;15.83;10.87;;;6.70;94.90;;;;;;928072;148;27394;-79
2023/01/20 11:19:13;;;;;;;13.33;11.30;;;6.70;94.50;;;;;;944761;148;27322;-80
2023/01/20 11:21:40;;;;;;;14.53;11.60;;;6.80;94.20;;;;;;943128;148;27715;-79
2023/01/20 11:24:31;;;;;;;12.63;11.33;;;6.80;93.90;;;;;;943492;149;27890;-79
2023/01/20 11:27:04;;;;;;;15.80;11.27;;;6.80;93.60;;;;;;944210;148;27394;-82
2023/01/20 11:29:30;;;;;;;12.30;10.80;;;6.80;93.50;;;;;;942274;148;27484;-80
2023/01/20 11:31:58;;;;;;;15.23;11.87;;;6.80;93.50;;;;;;943300;148;27327;-80
2023/01/20 11:34:26;;;;;;;12.10;10.80;;;6.80;93.50;;;;;;944184;148;27311;-80
2023/01/20 11:37:05;;;;;;;12.57;10.30;;;6.80;93.40;;;;;;944461;148;27453;-80
2023/01/20 11:39:34;;;;;;;12.70;11.30;;;6.80;93.10;;;;;;945728;148;27475;-79
2023/01/20 11:42:19;;;;;;;11.80;10.57;;;6.80;92.80;;;;;;943055;148;27469;-79
2023/01/20 11:44:51;;;;;;;12.40;11.10;;;6.80;92.60;;;;;;943207;148;27342;-80
2023/01/20 11:47:26;;;;;;;13.20;11.20;;;6.80;92.60;;;;;;944169;148;27376;-79
2023/01/20 11:50:08;;;;;;;13.33;10.80;;;6.80;92.80;;;;;;934492;150;27477;-79
2023/01/20 11:52:37;;;;;;;11.43;10.23;;;6.80;92.90;;;;;;933395;150;27357;-80
2023/01/20 11:55:13;;;;;;;14.00;11.37;;;6.90;92.90;;;;;;934574;150;27337;-79
2023/01/20 11:57:39;;;;;;;13.13;11.50;;;6.90;92.90;;;;;;933129;150;27533;-81
2023/01/20 12:00:18;;;;;;;13.03;11.33;;;6.90;92.60;;;;;;934658;150;27334;-80
2023/01/20 12:02:44;;;;;;;11.73;8.60;;;6.90;92.10;;;;;;932588;150;27321;-80
2023/01/20 12:05:16;;;;;;;9.67;8.67;;;6.80;92.10;;;;;;929830;148;27436;-79
2023/01/20 12:07:46;;;;;;;11.87;10.03;;;6.80;92.60;;;;;;926470;151;27407;-79
2023/01/20 12:10:30;;;;;;;12.83;10.50;;;6.90;93.20;;;;;;931233;151;27383;-79
2023/01/20 12:12:57;;;;;;;13.63;9.17;;;6.90;93.50;;;;;;941691;148;27366;-79
2023/01/20 12:15:24;;;;;;;10.30;8.97;;;7.00;93.60;;;;;;943897;148;27686;-79
2023/01/20 12:17:53;;;;;;;9.37;8.43;;;7.10;93.40;;;;;;944370;148;27511;-79
2023/01/20 12:20:38;;;;;;;10.40;9.07;;;7.10;93.20;;;;;;943827;148;27349;-79
2023/01/20 12:23:10;;;;;;;11.77;9.73;;;7.20;93.00;;;;;;943719;148;27370;-79
2023/01/20 12:25:36;;;;;;;10.83;9.33;;;7.30;93.00;;;;;;944374;148;27440;-80
2023/01/20 12:28:08;;;;;;;9.73;8.53;;;7.30;93.20;;;;;;943570;149;28587;-80
2023/01/20 12:30:59;;;;;;;12.60;10.20;;;7.40;93.40;;;;;;944311;148;27284;-80
2023/01/20 12:33:31;;;;;;;17.40;11.37;;;7.50;93.30;;;;;;944341;148;27378;-79
2023/01/20 12:36:13;;;;;;;11.60;9.80;;;7.60;93.00;;;;;;943566;148;27371;-79
2023/01/20 12:39:08;;;;;;;12.73;9.93;;;7.60;92.70;;;;;;944525;148;27359;-79
2023/01/20 12:42:03;;;;;;;9.57;7.77;;;7.70;92.50;;;;;;944858;148;27812;-78
2023/01/20 12:44:55;;;;;;;10.83;8.60;;;7.70;92.20;;;;;;942880;148;27350;-81
2023/01/20 12:47:28;;;;;;;10.37;8.87;;;7.70;91.80;;;;;;942229;148;27431;-81
2023/01/20 12:50:22;;;;;;;12.90;9.77;;;7.70;91.60;;;;;;943936;148;27346;-78
2023/01/20 12:52:52;;;;;;;10.73;8.77;;;7.70;91.10;;;;;;944316;148;27286;-80
2023/01/20 12:55:24;;;;;;;10.57;9.27;;;7.70;90.50;;;;;;942654;148;27458;-81
2023/01/20 12:58:00;;;;;;;10.73;8.40;;;7.60;90.10;;;;;;940232;149;27326;-81
2023/01/20 13:00:48;;;;;;;8.53;7.73;;;7.50;89.60;;;;;;942138;149;27333;-80